Nearby METAR (Airport) Reports

 

KPRN - Greenville, Alabama, USA
Distance from station: WNW 17mi, 28km
Updated: Wed, 08-Jul-2020 10:56pm CDT
Clear
Clear
 Wind from W
Wind: W 6 mph , 9 km/h
Temperature: 73°F , 23°C
Dew Point: 68°F , 20°C
Humidity: 83%
Barometer: 29.95 inHg , 1014.2 hPa
Clouds: Clear
Visibility: 10 miles , 16 km
2020/07/09 03:56 KPRN 090356Z AUTO 26005KT 10SM CLR 23/20 A2995 RMK AO2 SLP136 T02280200
KTOI - Troy, Alabama, USA
Distance from station: ENE 21mi, 34km
Updated: Wed, 08-Jul-2020 11:53pm CDT
Clear
Clear
 Wind from calm
Wind: Calm
Temperature: 75°F , 24°C
Dew Point: 70°F , 21°C
Humidity: 83%
Barometer: 29.97 inHg , 1014.9 hPa
Clouds: Clear
Visibility: 10 miles , 16 km
2020/07/09 04:53 KTOI 090453Z AUTO 00000KT 10SM CLR 24/21 A2997 RMK AO2 SLP141 T02390211
K79J - Andalusia/Opp Ar, Alabama, USA
Distance from station: S 29mi, 47km
Updated: Wed, 08-Jul-2020 11:05pm CDT
Overcast
Overcast
 Wind from SW
Wind: SW 3 mph , 6 km/h
Temperature: 77°F , 25°C
Dew Point: 72°F , 22°C
Humidity: 83%
Barometer: 29.96 inHg , 1014.6 hPa
Clouds: Overcast
Visibility: 10 miles , 16 km
Cloud details: Few Clouds 800 ft
Overcast 8500 ft
2020/07/09 04:05 K79J 090405Z AUTO 23003KT 10SM FEW008 OVC085 25/22 A2996 RMK AO2 T02500222
 
KMGM - Montgomery, Alabama, USA
Distance from station: N 39mi, 63km
Updated: Wed, 08-Jul-2020 11:53pm CDT
Mostly cloudy
Mostly cloudy
 Wind from W
Wind: W 7 mph , 11 km/h
Temperature: 73°F , 23°C
Dew Point: 72°F , 22°C
Humidity: 94%
Barometer: 29.95 inHg , 1014.2 hPa
Clouds: Mostly cloudy
Visibility: 10 miles , 16 km
Cloud details: Mostly cloudy 700 ft
2020/07/09 04:53 KMGM 090453Z AUTO 27006KT 10SM BKN007 23/22 A2995 RMK AO2 CIG 005V010 SLP140 T02330222
KMXF - Maxwell Afb/Mgm, Alabama, USA
Distance from station: N 44mi, 70km
Updated: Wed, 08-Jul-2020 11:56pm CDT
Overcast
Overcast
 Wind from WNW
Wind: WNW 5 mph , 7 km/h
Temperature: 75°F , 24°C
Dew Point: 70°F , 21°C
Humidity: 83%
Barometer: 29.95 inHg , 1014.2 hPa
Clouds: Overcast
Visibility: 10 miles , 16 km
Cloud details: Overcast 700 ft
2020/07/09 04:56 KMXF 090456Z AUTO 30004KT 10SM OVC007 24/21 A2995 RMK AO2 SLP143 T02360205
KLOR - Lowe Ahp/Ft. Ruc, Alabama, USA
Distance from station: SE 44mi, 71km
Updated: Wed, 08-Jul-2020 11:58pm CDT
Clear
Clear
 Wind from W
Wind: W 5 mph , 7 km/h
Clouds: Clear
Visibility: 10 miles , 16 km
2020/07/09 04:58 KLOR 090458Z AUTO 26004KT 10SM CLR M A2996 RMK AO2 SLPNO FZRANO $
 
KGZH - Evergreen, Alabama, USA
Distance from station: WSW 46mi, 75km
Updated: Wed, 08-Jul-2020 11:53pm CDT
Overcast
Overcast
 Wind from calm
Wind: Calm
Temperature: 73°F , 23°C
Dew Point: 72°F , 22°C
Humidity: 94%
Barometer: 29.96 inHg , 1014.6 hPa
Clouds: Overcast
Visibility: 10 miles , 16 km
Cloud details: Few Clouds 5500 ft
Mostly cloudy 9000 ft
Overcast 11000 ft
2020/07/09 04:53 KGZH 090453Z AUTO 00000KT 10SM FEW055 BKN090 OVC110 23/22 A2996 RMK AO2 SLP142 T02330217
K0J4 - Florala Muni, Alabama, USA
Distance from station: S 47mi, 76km
Updated: Wed, 06-May-2020 8:56am CDT
NOT Current
Clear
Clear
 Wind from NNE
Wind: NNE 10 mph , 17 km/h
Temperature: 72°F , 22°C
Dew Point: 54°F , 12°C
Humidity: 53%
Barometer: 30.04 inHg , 1017.3 hPa
Clouds: Clear
Visibility: 10 miles , 16 km
2020/05/06 13:56 K0J4 061356Z AUTO 03009KT 10SM CLR 22/12 A3004 RMK AO2 SLP169 T02220122
KOZR - Ozark/Cairns Aaf, Alabama, USA
Distance from station: SE 49mi, 78km
Updated: Wed, 08-Jul-2020 11:56pm CDT
Clear
Clear
 Wind from WNW
Wind: WNW 5 mph , 7 km/h
Temperature: 73°F , 23°C
Dew Point: 72°F , 22°C
Humidity: 94%
Barometer: 29.95 inHg , 1014.2 hPa
Clouds: Clear
Visibility: 10 miles , 16 km
2020/07/09 04:56 KOZR 090456Z AUTO 30004KT 10SM CLR 23/22 A2995 RMK AO2 SLP141 T02300223
 
KHEY - Ft Rucker/Hanche, Alabama, USA
Distance from station: ESE 49mi, 79km
Updated: Wed, 08-Jul-2020 11:58pm CDT
Clear
Clear
 Wind from calm
Wind: Calm
Temperature: 73°F , 23°C
Dew Point: 72°F , 22°C
Humidity: 94%
Barometer: 29.94 inHg , 1013.9 hPa
Clouds: Clear
Visibility: 10 miles , 16 km
2020/07/09 04:58 KHEY 090458Z AUTO 00000KT 10SM CLR 23/22 A2994 RMK AO2 SLP138 T02310219
KDHN - Dothan, Alabama, USA
Distance from station: ESE 61mi, 97km
Updated: Wed, 08-Jul-2020 11:53pm CDT
Clear
Clear
 Wind from W
Wind: W 8 mph , 13 km/h
Temperature: 75°F , 24°C
Dew Point: 72°F , 22°C
Humidity: 89%
Barometer: 29.98 inHg , 1015.2 hPa
Clouds: Clear
Visibility: 10 miles , 16 km
2020/07/09 04:53 KDHN 090453Z AUTO 27007KT 10SM CLR 24/22 A2998 RMK AO2 SLP147 T02390222 403280239
KCEW - Crestview, Florida, USA
Distance from station: S 66mi, 107km
Updated: Wed, 08-Jul-2020 11:53pm CDT
Clear
Clear
 Wind from SSW
Wind: SSW 3 mph , 6 km/h
Temperature: 75°F , 24°C
Dew Point: 72°F , 22°C
Humidity: 89%
Barometer: 29.97 inHg , 1014.9 hPa
Clouds: Clear
Visibility: 10 miles , 16 km
2020/07/09 04:53 KCEW 090453Z AUTO 20003KT 10SM CLR 24/22 A2997 RMK AO2 SLP144 T02390217
 
KEUF - Eufaula, Alabama, USA
Distance from station: ENE 73mi, 118km
Updated: Mon, 04-Mar-2019 12:58pm CST
NOT Current

 
Barometer: 30.10 inHg , 1019.3 hPa
2019/03/04 18:58 KEUF 041858Z AUTO A3010 RMK AO2 RAEMM TSB02B32 SLPNO PWINO FZRANO TSNO $
KJKA - Gulf Shores, Alabama, USA
Distance from station: SSW 132mi, 212km
Updated: Wed, 08-Jul-2020 11:55pm CDT
Clear
Clear
 Wind from W
Wind: W 10 mph , 17 km/h
Temperature: 73°F , 23°C
Dew Point: 72°F , 22°C
Humidity: 94%
Barometer: 29.97 inHg , 1014.9 hPa
Clouds: Clear
Visibility: 10 miles , 16 km
2020/07/09 04:55 KJKA 090455Z AUTO 27009KT 10SM CLR 23/22 A2997 RMK AO2 T02250220 403170221
KLSF - Ft Benning/Colum, Georgia, USA
Distance from station: SNE 89mi, 143km
Updated: Wed, 08-Jul-2020 11:56pm CDT
Overcast
Overcast
 Wind from calm
Wind: Calm
Temperature: 75°F , 24°C
Dew Point: 73°F , 23°C
Humidity: 94%
Barometer: 29.90 inHg , 1012.5 hPa
Clouds: Overcast
Visibility: 10 miles , 16 km
Cloud details: Partly cloudy 15000 ft
Overcast 18000 ft
2020/07/09 04:56 KLSF 090456Z AUTO 00000KT 10SM SCT150 OVC180 24/23 A2990 RMK AO2 SLP128 T02430227 403160233
 
KMOB - Mobile/Bates, Alabama, USA
Distance from station: SW 125mi, 202km
Updated: Wed, 08-Jul-2020 11:56pm CDT
Clear
Clear
 
Temperature: 72°F , 22°C
Dew Point: 72°F , 22°C
Humidity: 100%
Barometer: 29.97 inHg , 1014.9 hPa
Clouds: Clear
Visibility: 10 miles , 16 km
2020/07/09 04:56 KMOB 090456Z AUTO 10SM CLR 22/22 A2997 RMK AO2 SLP146 T02170217 $
KNMM - Meridian Nas, Mississippi, USA
Distance from station: WNW 151mi, 243km
Updated: Wed, 08-Jul-2020 11:56pm CDT
Clear
Clear
 Wind from calm
Wind: Calm
Temperature: 72°F , 22°C
Dew Point: 72°F , 22°C
Humidity: 100%
Barometer: 29.95 inHg , 1014.2 hPa
Clouds: Clear
Visibility: 10 miles , 16 km
2020/07/09 04:56 KNMM 090456Z 00000KT 10SM CLR 22/22 A2995 RMK AO2 SLP147 T02220217
KQHY - Hurlbert (Ft Walton Bch), Florida, USA
Distance from station: S 94mi, 151km
Updated: Wed, 08-Jul-2020 11:56pm CDT
Clear
Clear
 Wind from calm
Wind: Calm
Temperature: 75°F , 24°C
Dew Point: 72°F , 22°C
Humidity: 89%
Barometer: 29.96 inHg , 1014.6 hPa
Clouds: Clear
Visibility: 10 miles , 16 km
2020/07/09 04:56 KQHY 090456Z AUTO 00000KT 10SM CLR 24/22 A2996 RMK AO2 SLPNO T02440224
 
KTCL - Tuscaloosa, Alabama, USA
Distance from station: NNW 129mi, 207km
Updated: Wed, 08-Jul-2020 11:53pm CDT
Mostly cloudy
Mostly cloudy
 Wind from S
Wind: S 5 mph , 7 km/h
Temperature: 75°F , 24°C
Dew Point: 73°F , 23°C
Humidity: 94%
Barometer: 29.93 inHg , 1013.5 hPa
Clouds: Mostly cloudy
Visibility: 10 miles , 16 km
Cloud details: Mostly cloudy 400 ft
2020/07/09 04:53 KTCL 090453Z AUTO 19004KT 10SM BKN004 24/23 A2993 RMK AO2 SLP133 T02390233
KECP - Panama City, Florida, USA
Distance from station: SSE 122mi, 196km
Updated: Wed, 08-Jul-2020 11:53pm CDT
Clear
Clear
 Wind from calm
Wind: Calm
Temperature: 79°F , 26°C
Dew Point: 72°F , 22°C
Humidity: 79%
Barometer: 29.93 inHg , 1013.5 hPa
Clouds: Clear
Visibility: 10 miles , 16 km
2020/07/09 04:53 KECP 090453Z AUTO 00000KT 10SM CLR 26/22 A2993 RMK AO2 SLP147 T02560222 403280233
KCBM - Columbus Afb, Mississippi, USA
Distance from station: NW 175mi, 282km
Updated: Wed, 08-Jul-2020 11:56pm CDT
Clear
Clear
 Wind from calm
Wind: Calm
Temperature: 73°F , 23°C
Dew Point: 73°F , 23°C
Humidity: 100%
Barometer: 29.92 inHg , 1013.2 hPa
Clouds: Clear
Visibility: 10 miles , 16 km
2020/07/09 04:56 KCBM 090456Z AUTO 00000KT 10SM CLR 23/23 A2992 RMK AO2 SLP133 T02320225 $
 
KBHM - Birmingham, Alabama, USA
Distance from station: N 132mi, 212km
Updated: Wed, 08-Jul-2020 11:53pm CDT
Mostly cloudy
Mostly cloudy
 Wind from WSW
Wind: WSW 7 mph , 11 km/h
Temperature: 77°F , 25°C
Dew Point: 70°F , 21°C
Humidity: 79%
Barometer: 29.96 inHg , 1014.6 hPa
Clouds: Mostly cloudy
Visibility: 10 miles , 16 km
Cloud details: Mostly cloudy 12000 ft
2020/07/09 04:53 KBHM 090453Z 24006KT 10SM BKN120 25/21 A2996 RMK AO2 SLP137 T02500206
KAAF - Apalachicola, Florida, USA
Distance from station: SSE 156mi, 250km
Updated: Wed, 08-Jul-2020 11:53pm CDT
Clear
Clear
 Wind from calm
Wind: Calm
Temperature: 79°F , 26°C
Dew Point: 77°F , 25°C
Humidity: 94%
Barometer: 29.94 inHg , 1013.9 hPa
Clouds: Clear
Visibility: 10 miles , 16 km
2020/07/09 04:53 KAAF 090453Z AUTO 00000KT 10SM CLR 26/25 A2994 RMK AO2 SLP137 T02560250 403330228 TSNO
KATL - Atlanta, Georgia, USA
Distance from station: NE 177mi, 287km
Updated: Wed, 08-Jul-2020 11:52pm CDT
Mostly cloudy
Mostly cloudy
 Wind from WNW
Wind: WNW 7 mph , 11 km/h
Temperature: 75°F , 24°C
Dew Point: 72°F , 22°C
Humidity: 89%
Barometer: 29.93 inHg , 1013.5 hPa
Clouds: Mostly cloudy
Visibility: 10 miles , 16 km
Cloud details: Few Clouds 8000 ft
Partly cloudy 15000 ft
Mostly cloudy 20000 ft
Mostly cloudy 25000 ft
2020/07/09 04:52 KATL 090452Z 30006KT 10SM FEW080 SCT150 BKN200 BKN250 24/22 A2993 RMK AO2 SLP125 T02440217 403000233
 
KGPT - Gulfport, Mississippi, USA
Distance from station: SW 192mi, 309km
Updated: Wed, 08-Jul-2020 11:53pm CDT
Clear
Clear
 Wind from calm
Wind: Calm
Temperature: 75°F , 24°C
Dew Point: 73°F , 23°C
Humidity: 94%
Barometer: 29.96 inHg , 1014.6 hPa
Clouds: Clear
Visibility: 10 miles , 16 km
2020/07/09 04:53 KGPT 090453Z AUTO 00000KT 10SM CLR 24/23 A2996 RMK AO2 SLP143 T02440228
KNEW - New Orleans/Lake, Louisiana, USA
Distance from station: SW 255mi, 410km
Updated: Wed, 08-Jul-2020 11:53pm CDT
Clear
Clear
 Wind from SW
Wind: SW 12 mph , 19 km/h
Temperature: 84°F , 29°C
Heat Index: 92°F , 33°C
Dew Point: 75°F , 24°C
Humidity: 74%
Barometer: 29.96 inHg , 1014.6 hPa
Clouds: Clear
Visibility: 10 miles , 16 km
2020/07/09 04:53 KNEW 090453Z AUTO 23010KT 10SM CLR 29/24 A2996 RMK AO2 SLP139 T02890244
KP92 - Salt Point, Louisiana, USA
Distance from station: SW 347mi, 559km
Updated: Wed, 08-Jul-2020 10:59pm CDT

 Wind from varies
Wind: varies 6 mph , 9 km/h
Temperature: 82°F , 28°C
Heat Index: 90°F , 32°C
Dew Point: 77°F , 25°C
Humidity: 84%
Barometer: 29.94 inHg , 1013.9 hPa
2020/07/09 03:59 KP92 090359Z AUTO VRB05KT 28/25 A2994 RMK AO1 SLP140 T02830250